Time;durP1;ratioP1;P1;durP2;ratioP2;P2;SDS_P1;SDS_P2;PMS_P1;PMS_P2;Temp;Humidity;BMP_temperature;BMP_pressure;BME280_temperature;BME280_humidity;BME280_pressure;Samples;Min_cycle;Max_cycle;Signal;HPM_P1;HPM_P2
2022/12/10 00:02:22;;;;;;;147.10;52.17;;;;;;;;;;5087501;28;20046;-66
2022/12/10 00:04:48;;;;;;;155.55;52.70;;;;;;;;;;5096506;28;20044;-66
2022/12/10 00:07:14;;;;;;;173.73;54.15;;;;;;;;;;5098503;28;20040;-66
2022/12/10 00:09:40;;;;;;;164.98;52.38;;;;;;;;;;5097652;28;20066;-66
2022/12/10 00:12:06;;;;;;;173.27;50.33;;;;;;;;;;5099193;28;20051;-66
2022/12/10 00:14:32;;;;;;;179.02;54.22;;;;;;;;;;5096023;28;20464;-66
2022/12/10 00:16:58;;;;;;;173.07;54.42;;;;;;;;;;5098944;28;20483;-67
2022/12/10 00:19:25;;;;;;;181.40;53.28;;;;;;;;;;5073619;28;20166;-66
2022/12/10 00:21:51;;;;;;;171.98;54.67;;;;;;;;;;5094675;28;20040;-66
2022/12/10 00:24:17;;;;;;;183.50;55.80;;;;;;;;;;5080194;28;20131;-66
2022/12/10 00:26:45;;;;;;;165.23;53.90;;;;;;;;;;5076771;28;20043;-66
2022/12/10 00:29:12;;;;;;;173.07;53.20;;;;;;;;;;5096908;28;20040;-66
2022/12/10 00:31:39;;;;;;;194.70;54.80;;;;;;;;;;5099673;28;20113;-66
2022/12/10 00:34:06;;;;;;;177.80;52.92;;;;;;;;;;5078727;28;20043;-66
2022/12/10 00:36:34;;;;;;;185.23;55.05;;;;;;;;;;5075659;28;20185;-66
2022/12/10 00:39:00;;;;;;;185.52;52.95;;;;;;;;;;5096947;28;20047;-66
2022/12/10 00:41:26;;;;;;;208.18;58.03;;;;;;;;;;5097102;28;20124;-66
2022/12/10 00:43:52;;;;;;;185.43;53.38;;;;;;;;;;5099285;28;20047;-66
2022/12/10 00:46:19;;;;;;;198.30;54.97;;;;;;;;;;5081108;28;20510;-66
2022/12/10 00:48:45;;;;;;;218.85;57.38;;;;;;;;;;5098304;28;20126;-66
2022/12/10 00:51:13;;;;;;;205.18;53.45;;;;;;;;;;5092640;27;20260;-66
2022/12/10 00:53:40;;;;;;;213.98;57.40;;;;;;;;;;5096372;28;20122;-66
2022/12/10 00:56:07;;;;;;;244.73;60.50;;;;;;;;;;5090628;27;20073;-66
2022/12/10 00:58:34;;;;;;;255.07;61.58;;;;;;;;;;5074678;28;20178;-66
2022/12/10 01:01:07;;;;;;;254.38;60.75;;;;;;;;;;5097393;28;20047;-66
2022/12/10 01:03:33;;;;;;;278.10;60.97;;;;;;;;;;5096578;28;20051;-66
2022/12/10 01:06:08;;;;;;;280.30;63.33;;;;;;;;;;5098059;28;20040;-66
2022/12/10 01:08:34;;;;;;;257.73;60.58;;;;;;;;;;5098836;28;20435;-67
2022/12/10 01:11:00;;;;;;;265.67;62.20;;;;;;;;;;5078491;28;20402;-66
2022/12/10 01:13:26;;;;;;;278.50;65.60;;;;;;;;;;5097034;28;20036;-66
2022/12/10 01:15:52;;;;;;;272.40;64.03;;;;;;;;;;5078053;28;20055;-66
2022/12/10 01:18:19;;;;;;;257.88;61.22;;;;;;;;;;5097383;28;20055;-66
2022/12/10 01:20:45;;;;;;;293.60;64.22;;;;;;;;;;5080849;28;20051;-66
2022/12/10 01:23:11;;;;;;;318.77;64.75;;;;;;;;;;5093015;28;20070;-66
2022/12/10 01:25:37;;;;;;;315.25;68.97;;;;;;;;;;5096794;28;20044;-66
2022/12/10 01:28:03;;;;;;;299.30;66.38;;;;;;;;;;5100226;28;20048;-67
2022/12/10 01:30:29;;;;;;;320.13;67.53;;;;;;;;;;5078255;28;20122;-66
2022/12/10 01:32:56;;;;;;;286.00;64.07;;;;;;;;;;5078988;28;20092;-67
2022/12/10 01:35:22;;;;;;;293.30;66.82;;;;;;;;;;5063433;28;20119;-66
2022/12/10 01:37:48;;;;;;;325.55;68.13;;;;;;;;;;5099497;28;20413;-67
2022/12/10 01:40:14;;;;;;;288.33;66.97;;;;;;;;;;5096728;28;20039;-66
2022/12/10 01:42:40;;;;;;;269.70;63.67;;;;;;;;;;5098867;28;20066;-66
2022/12/10 01:45:08;;;;;;;307.58;68.28;;;;;;;;;;5096546;28;20078;-66
2022/12/10 01:47:34;;;;;;;300.20;67.32;;;;;;;;;;5096457;28;20099;-66
2022/12/10 01:50:01;;;;;;;293.60;69.13;;;;;;;;;;5096399;28;20047;-66
2022/12/10 01:52:27;;;;;;;335.80;69.90;;;;;;;;;;5099095;28;20119;-67
2022/12/10 01:54:53;;;;;;;330.90;68.25;;;;;;;;;;5079096;28;20047;-66
2022/12/10 01:57:22;;;;;;;352.13;70.78;;;;;;;;;;5098820;28;21966;-66
2022/12/10 01:59:51;;;;;;;377.85;68.43;;;;;;;;;;5099291;28;20050;-66
2022/12/10 02:02:24;;;;;;;337.08;68.65;;;;;;;;;;5097143;28;20046;-66
2022/12/10 02:04:57;;;;;;;350.45;67.78;;;;;;;;;;5096410;28;20055;-66
2022/12/10 02:07:32;;;;;;;330.10;72.68;;;;;;;;;;5096809;28;20035;-66
2022/12/10 02:10:01;;;;;;;329.35;68.05;;;;;;;;;;5079516;28;20056;-67
2022/12/10 02:12:33;;;;;;;311.30;68.07;;;;;;;;;;5098545;28;20110;-67
2022/12/10 02:15:04;;;;;;;330.67;65.75;;;;;;;;;;5098483;28;20089;-66
2022/12/10 02:17:38;;;;;;;385.58;75.32;;;;;;;;;;5089876;28;20510;-66
2022/12/10 02:20:07;;;;;;;332.65;64.95;;;;;;;;;;5095887;28;21850;-66
2022/12/10 02:22:37;;;;;;;374.95;68.43;;;;;;;;;;5079948;28;20095;-66
2022/12/10 02:25:05;;;;;;;422.55;72.28;;;;;;;;;;5094304;28;20043;-67
2022/12/10 02:27:36;;;;;;;426.55;76.25;;;;;;;;;;5090780;28;20047;-66
2022/12/10 02:30:03;;;;;;;417.58;75.40;;;;;;;;;;5078483;28;20049;-66
2022/12/10 02:32:33;;;;;;;394.48;75.95;;;;;;;;;;5079381;28;20494;-66
2022/12/10 02:35:01;;;;;;;391.45;73.78;;;;;;;;;;5077066;28;20044;-66
2022/12/10 02:37:30;;;;;;;334.35;74.35;;;;;;;;;;5096743;28;20055;-66
2022/12/10 02:39:58;;;;;;;358.67;72.03;;;;;;;;;;5098300;28;20046;-66
2022/12/10 02:42:26;;;;;;;348.13;72.55;;;;;;;;;;5080107;28;20051;-66
2022/12/10 02:44:53;;;;;;;341.10;68.43;;;;;;;;;;5079592;28;20125;-66
2022/12/10 02:47:20;;;;;;;330.85;71.88;;;;;;;;;;5077945;28;20036;-66
2022/12/10 02:49:48;;;;;;;397.50;72.55;;;;;;;;;;5100917;28;20036;-66
2022/12/10 02:52:15;;;;;;;357.10;72.25;;;;;;;;;;5099240;28;20044;-67
2022/12/10 02:54:43;;;;;;;349.55;72.80;;;;;;;;;;5096312;28;20055;-67
2022/12/10 02:57:28;;;;;;;338.17;67.90;;;;;;;;;;5076951;28;20475;-67
2022/12/10 03:00:00;;;;;;;357.08;69.45;;;;;;;;;;5096896;28;20040;-66
2022/12/10 03:02:34;;;;;;;357.90;69.32;;;;;;;;;;5099300;28;20036;-66
2022/12/10 03:05:00;;;;;;;317.45;67.13;;;;;;;;;;5082437;28;20065;-66
2022/12/10 03:07:33;;;;;;;320.90;67.65;;;;;;;;;;5101063;28;20447;-67
2022/12/10 03:10:02;;;;;;;329.63;67.05;;;;;;;;;;5102450;28;20047;-66
2022/12/10 03:12:32;;;;;;;344.08;67.40;;;;;;;;;;5098765;28;20081;-66
2022/12/10 03:14:59;;;;;;;403.48;72.25;;;;;;;;;;5097892;28;20443;-66
2022/12/10 03:17:25;;;;;;;345.30;66.18;;;;;;;;;;5102916;28;20039;-66
2022/12/10 03:19:52;;;;;;;419.08;75.10;;;;;;;;;;5082798;28;20065;-66
2022/12/10 03:22:20;;;;;;;416.17;71.63;;;;;;;;;;5080858;28;20142;-66
2022/12/10 03:24:47;;;;;;;385.15;68.15;;;;;;;;;;5077172;28;20043;-66
2022/12/10 03:27:14;;;;;;;413.58;72.95;;;;;;;;;;5098923;28;20040;-66
2022/12/10 03:29:44;;;;;;;402.65;72.75;;;;;;;;;;5098076;28;20527;-66
2022/12/10 03:32:11;;;;;;;343.55;67.45;;;;;;;;;;5099609;28;20048;-66
2022/12/10 03:34:37;;;;;;;382.05;68.93;;;;;;;;;;5099460;28;20071;-67
2022/12/10 03:37:04;;;;;;;385.58;69.47;;;;;;;;;;5099108;28;20196;-66
2022/12/10 03:39:30;;;;;;;391.20;70.63;;;;;;;;;;5101930;28;20558;-66
2022/12/10 03:41:56;;;;;;;414.42;73.45;;;;;;;;;;5099766;28;20067;-67
2022/12/10 03:44:36;;;;;;;384.55;66.18;;;;;;;;;;5097510;28;20122;-66
2022/12/10 03:47:03;;;;;;;419.95;71.40;;;;;;;;;;5080666;28;20052;-66
2022/12/10 03:49:29;;;;;;;445.23;71.10;;;;;;;;;;5098706;28;20352;-67
2022/12/10 03:51:55;;;;;;;434.90;69.25;;;;;;;;;;5099221;28;20439;-66
2022/12/10 03:54:22;;;;;;;463.42;74.03;;;;;;;;;;5081475;28;20550;-66
2022/12/10 03:56:48;;;;;;;443.63;70.97;;;;;;;;;;5097779;28;20047;-66
2022/12/10 03:59:14;;;;;;;454.17;74.65;;;;;;;;;;5100947;28;20036;-66
2022/12/10 04:01:41;;;;;;;482.88;74.03;;;;;;;;;;5099066;28;20431;-66
2022/12/10 04:04:07;;;;;;;510.23;73.28;;;;;;;;;;5081188;28;20066;-66
2022/12/10 04:06:34;;;;;;;490.23;74.95;;;;;;;;;;5081677;28;20115;-66
2022/12/10 04:09:00;;;;;;;501.50;75.25;;;;;;;;;;5099374;28;20052;-66
2022/12/10 04:11:26;;;;;;;579.17;82.18;;;;;;;;;;5100315;28;20042;-66
2022/12/10 04:16:49;;;;;;;604.90;78.80;;;;;;;;;;5099043;28;20117;-66
2022/12/10 04:19:16;;;;;;;674.40;85.38;;;;;;;;;;5099293;28;20088;-66
2022/12/10 04:27:18;;;;;;;815.70;88.00;;;;;;;;;;5096712;28;20036;-66
2022/12/10 04:29:44;;;;;;;799.30;84.70;;;;;;;;;;5095184;28;20510;-66
2022/12/10 04:32:10;;;;;;;701.30;84.57;;;;;;;;;;5078930;28;20148;-67
2022/12/10 04:34:36;;;;;;;752.53;90.13;;;;;;;;;;5082430;28;20044;-66
2022/12/10 04:37:03;;;;;;;836.42;89.78;;;;;;;;;;5081010;28;20569;-67
2022/12/10 04:39:29;;;;;;;756.90;86.90;;;;;;;;;;5099400;28;20067;-67
2022/12/10 04:41:56;;;;;;;770.08;90.38;;;;;;;;;;5098985;28;20074;-67
2022/12/10 04:44:22;;;;;;;831.50;90.18;;;;;;;;;;5099304;28;20569;-66
2022/12/10 04:46:49;;;;;;;777.25;88.72;;;;;;;;;;5079535;28;20400;-67
2022/12/10 04:49:15;;;;;;;764.33;89.35;;;;;;;;;;5100259;28;20055;-66
2022/12/10 04:51:41;;;;;;;783.28;87.25;;;;;;;;;;5101058;28;20051;-67
2022/12/10 04:54:08;;;;;;;860.45;96.72;;;;;;;;;;5100823;28;20048;-67
2022/12/10 04:56:34;;;;;;;727.88;89.32;;;;;;;;;;5099239;28;20050;-67
2022/12/10 04:59:01;;;;;;;751.08;90.75;;;;;;;;;;5098595;28;20036;-66
2022/12/10 05:01:27;;;;;;;726.08;89.43;;;;;;;;;;5081136;28;20047;-67
2022/12/10 05:03:54;;;;;;;734.45;90.55;;;;;;;;;;5095951;28;20068;-67
2022/12/10 05:06:20;;;;;;;864.50;96.25;;;;;;;;;;5098211;28;20065;-67
2022/12/10 05:08:47;;;;;;;811.45;98.03;;;;;;;;;;5095988;28;20139;-67
2022/12/10 05:11:15;;;;;;;893.10;102.68;;;;;;;;;;5081309;28;20528;-67
2022/12/10 05:13:41;;;;;;;767.55;91.93;;;;;;;;;;5098547;28;20065;-67
2022/12/10 05:16:09;;;;;;;747.95;87.78;;;;;;;;;;5098716;28;20108;-67
2022/12/10 05:18:36;;;;;;;785.67;83.45;;;;;;;;;;5072709;28;20052;-67
2022/12/10 05:21:03;;;;;;;774.38;88.47;;;;;;;;;;5097780;28;20047;-67
2022/12/10 05:23:29;;;;;;;887.53;91.95;;;;;;;;;;5079188;28;20123;-67
2022/12/10 05:26:01;;;;;;;762.08;88.53;;;;;;;;;;5080042;28;20126;-67
2022/12/10 05:28:27;;;;;;;836.42;88.30;;;;;;;;;;5097622;28;20441;-67
2022/12/10 05:30:53;;;;;;;788.53;81.32;;;;;;;;;;5100158;28;20075;-67
2022/12/10 05:33:20;;;;;;;700.05;73.30;;;;;;;;;;5080801;28;20044;-67
2022/12/10 05:35:53;;;;;;;624.83;66.93;;;;;;;;;;5079913;28;20074;-67
2022/12/10 05:38:19;;;;;;;660.85;66.75;;;;;;;;;;5079532;28;20043;-67
2022/12/10 05:40:46;;;;;;;615.85;66.95;;;;;;;;;;5100403;28;20412;-67
2022/12/10 05:43:12;;;;;;;636.92;67.72;;;;;;;;;;5099374;28;20650;-67
2022/12/10 05:45:38;;;;;;;640.08;64.38;;;;;;;;;;5079343;28;20055;-67
2022/12/10 05:48:04;;;;;;;605.60;61.78;;;;;;;;;;5081250;28;20051;-67
2022/12/10 05:50:31;;;;;;;621.25;61.72;;;;;;;;;;5061039;28;20043;-67
2022/12/10 05:52:58;;;;;;;560.67;59.10;;;;;;;;;;5099945;28;20039;-67
2022/12/10 05:55:26;;;;;;;491.30;55.53;;;;;;;;;;5079945;28;20117;-67
2022/12/10 05:57:52;;;;;;;437.55;52.22;;;;;;;;;;5096119;28;20460;-67
2022/12/10 06:00:20;;;;;;;489.40;55.58;;;;;;;;;;5091740;28;20522;-67
2022/12/10 06:02:46;;;;;;;506.40;55.97;;;;;;;;;;5099396;28;20035;-67
2022/12/10 06:05:12;;;;;;;490.65;54.92;;;;;;;;;;5098347;28;20630;-67
2022/12/10 06:07:38;;;;;;;471.98;52.42;;;;;;;;;;5081929;28;20051;-67
2022/12/10 06:10:05;;;;;;;522.10;58.13;;;;;;;;;;5078392;28;20048;-67
2022/12/10 06:12:31;;;;;;;532.00;55.88;;;;;;;;;;5082655;28;20044;-67
2022/12/10 06:14:57;;;;;;;520.88;60.47;;;;;;;;;;5097473;28;20092;-68
2022/12/10 06:17:23;;;;;;;507.27;52.38;;;;;;;;;;5096608;28;20047;-67
2022/12/10 06:19:49;;;;;;;511.90;51.53;;;;;;;;;;5098371;28;20180;-67
2022/12/10 06:22:15;;;;;;;547.15;56.03;;;;;;;;;;5083428;28;20040;-67
2022/12/10 06:24:41;;;;;;;559.15;57.45;;;;;;;;;;5077104;28;20048;-67
2022/12/10 06:27:08;;;;;;;540.83;57.20;;;;;;;;;;5078730;28;20066;-68
2022/12/10 06:29:34;;;;;;;567.60;57.15;;;;;;;;;;5079285;28;20043;-67
2022/12/10 06:32:00;;;;;;;552.15;57.03;;;;;;;;;;5097105;28;20047;-67
2022/12/10 06:34:26;;;;;;;565.47;57.88;;;;;;;;;;5097664;28;20075;-67
2022/12/10 06:36:52;;;;;;;641.65;61.90;;;;;;;;;;5103027;28;20081;-67
2022/12/10 06:39:18;;;;;;;563.08;55.30;;;;;;;;;;5099876;28;20042;-67
2022/12/10 06:41:45;;;;;;;549.13;54.63;;;;;;;;;;5100175;28;20078;-67
2022/12/10 06:44:12;;;;;;;512.38;54.25;;;;;;;;;;5097604;28;20066;-67
2022/12/10 06:46:39;;;;;;;520.17;54.42;;;;;;;;;;5101176;28;20063;-67
2022/12/10 06:49:07;;;;;;;556.88;56.20;;;;;;;;;;5098749;28;20043;-67
2022/12/10 06:51:33;;;;;;;584.50;56.78;;;;;;;;;;5101341;28;20093;-67
2022/12/10 06:53:59;;;;;;;574.65;55.63;;;;;;;;;;5081681;28;20072;-67
2022/12/10 06:56:25;;;;;;;563.22;54.80;;;;;;;;;;5100185;28;20095;-68
2022/12/10 06:58:51;;;;;;;557.95;50.83;;;;;;;;;;5102394;28;20043;-67
2022/12/10 07:01:20;;;;;;;585.00;50.60;;;;;;;;;;5098387;28;20118;-68
2022/12/10 07:03:49;;;;;;;576.13;56.15;;;;;;;;;;5100657;28;20044;-67
2022/12/10 07:06:15;;;;;;;607.10;54.25;;;;;;;;;;5098905;28;20063;-67
2022/12/10 07:08:41;;;;;;;562.03;51.42;;;;;;;;;;5083491;28;20443;-67
2022/12/10 07:11:08;;;;;;;529.70;51.35;;;;;;;;;;5081880;28;20356;-68
2022/12/10 07:13:35;;;;;;;611.85;54.08;;;;;;;;;;5101273;28;20043;-68
2022/12/10 07:16:02;;;;;;;510.35;47.55;;;;;;;;;;5100805;28;20085;-67
2022/12/10 07:18:28;;;;;;;559.22;47.65;;;;;;;;;;5098649;28;20064;-68
2022/12/10 07:20:54;;;;;;;561.60;48.28;;;;;;;;;;5082295;28;20655;-67
2022/12/10 07:23:20;;;;;;;584.70;47.35;;;;;;;;;;5095433;27;20052;-68
2022/12/10 07:25:47;;;;;;;482.63;44.30;;;;;;;;;;5101435;28;20039;-68
2022/12/10 07:28:13;;;;;;;523.40;46.83;;;;;;;;;;5102009;28;20127;-68
2022/12/10 07:30:39;;;;;;;585.63;49.42;;;;;;;;;;5102477;28;20043;-68
2022/12/10 07:33:05;;;;;;;509.45;45.50;;;;;;;;;;5099357;28;20051;-68
2022/12/10 07:35:31;;;;;;;503.83;42.40;;;;;;;;;;5100839;28;20121;-68
2022/12/10 07:37:58;;;;;;;540.67;49.85;;;;;;;;;;5084059;28;20487;-67
2022/12/10 07:40:24;;;;;;;409.15;40.42;;;;;;;;;;5099196;28;20043;-68
2022/12/10 07:42:51;;;;;;;610.63;58.20;;;;;;;;;;5085735;28;20185;-67
2022/12/10 07:45:17;;;;;;;619.30;55.33;;;;;;;;;;5104214;28;20040;-67
2022/12/10 07:47:43;;;;;;;509.77;50.92;;;;;;;;;;5083748;28;20040;-68
2022/12/10 07:50:10;;;;;;;600.30;54.70;;;;;;;;;;5097284;28;20118;-68
2022/12/10 07:52:36;;;;;;;610.38;53.33;;;;;;;;;;5103478;28;20040;-68
2022/12/10 07:55:02;;;;;;;612.75;53.20;;;;;;;;;;5100661;27;20039;-68
2022/12/10 07:57:30;;;;;;;608.10;56.65;;;;;;;;;;5098222;28;20040;-68
2022/12/10 07:59:56;;;;;;;635.42;53.38;;;;;;;;;;5096174;28;20063;-73
2022/12/10 08:02:22;;;;;;;648.83;57.47;;;;;;;;;;5101571;28;20545;-68
2022/12/10 08:04:48;;;;;;;662.20;62.47;;;;;;;;;;5099681;28;20090;-67
2022/12/10 08:07:14;;;;;;;665.70;59.58;;;;;;;;;;5107936;28;20060;-68
2022/12/10 08:09:40;;;;;;;603.83;56.47;;;;;;;;;;5107989;28;20051;-67
2022/12/10 08:12:06;;;;;;;585.08;56.83;;;;;;;;;;5108511;28;20482;-68
2022/12/10 08:14:33;;;;;;;634.88;58.55;;;;;;;;;;5090033;28;20039;-67
2022/12/10 08:16:59;;;;;;;605.22;55.42;;;;;;;;;;5106261;28;20529;-67
2022/12/10 08:19:25;;;;;;;647.38;58.30;;;;;;;;;;5072800;28;20039;-68
2022/12/10 08:21:51;;;;;;;639.00;57.67;;;;;;;;;;5105960;28;20256;-68
2022/12/10 08:24:17;;;;;;;627.25;58.33;;;;;;;;;;5106312;28;20051;-68
2022/12/10 08:26:44;;;;;;;596.83;57.03;;;;;;;;;;5105201;28;20031;-68
2022/12/10 08:29:10;;;;;;;632.08;60.47;;;;;;;;;;5089090;28;20122;-68
2022/12/10 08:31:36;;;;;;;587.45;55.45;;;;;;;;;;5087216;28;20047;-68
2022/12/10 08:34:02;;;;;;;602.25;58.47;;;;;;;;;;5089503;28;20039;-68
2022/12/10 08:36:30;;;;;;;602.80;56.50;;;;;;;;;;5107268;28;20097;-68
2022/12/10 08:38:56;;;;;;;593.30;58.70;;;;;;;;;;5085648;28;20390;-68
2022/12/10 08:41:23;;;;;;;620.00;57.53;;;;;;;;;;5085627;28;20052;-68
2022/12/10 08:43:49;;;;;;;621.75;56.33;;;;;;;;;;5105486;28;20040;-68
2022/12/10 08:46:15;;;;;;;578.00;56.17;;;;;;;;;;5106988;28;20391;-68
2022/12/10 08:48:42;;;;;;;547.92;53.42;;;;;;;;;;5108465;28;20343;-67
2022/12/10 08:51:09;;;;;;;602.47;56.38;;;;;;;;;;5109526;28;20047;-68
2022/12/10 08:53:35;;;;;;;551.67;57.53;;;;;;;;;;5107323;28;20043;-68
2022/12/10 08:56:01;;;;;;;553.17;54.92;;;;;;;;;;5085309;28;20555;-68
2022/12/10 08:58:28;;;;;;;602.20;56.20;;;;;;;;;;5105768;28;20043;-68
2022/12/10 09:00:54;;;;;;;559.13;54.00;;;;;;;;;;5087465;28;20039;-67
2022/12/10 09:03:20;;;;;;;575.38;50.85;;;;;;;;;;5086526;28;20043;-67
2022/12/10 09:05:47;;;;;;;496.48;52.63;;;;;;;;;;5085779;28;20119;-68
2022/12/10 09:08:13;;;;;;;493.20;50.88;;;;;;;;;;5106883;28;20046;-68
2022/12/10 09:10:40;;;;;;;541.40;49.58;;;;;;;;;;5106502;28;20568;-67
2022/12/10 09:13:07;;;;;;;512.33;49.95;;;;;;;;;;5085706;28;20123;-67
2022/12/10 09:15:33;;;;;;;523.22;55.55;;;;;;;;;;5106312;28;20074;-68
2022/12/10 09:17:59;;;;;;;559.47;53.47;;;;;;;;;;5090602;27;20560;-68
2022/12/10 09:20:25;;;;;;;496.25;47.53;;;;;;;;;;5104539;28;20055;-68
2022/12/10 09:22:51;;;;;;;505.85;49.25;;;;;;;;;;5106237;28;20046;-68
2022/12/10 09:25:21;;;;;;;475.17;48.85;;;;;;;;;;5076949;28;20051;-66
2022/12/10 09:27:47;;;;;;;536.30;51.92;;;;;;;;;;5077414;28;20048;-73
2022/12/10 09:30:13;;;;;;;474.83;49.63;;;;;;;;;;5097432;28;20161;-65
2022/12/10 09:32:41;;;;;;;536.45;53.38;;;;;;;;;;5099142;28;20047;-65
2022/12/10 09:35:07;;;;;;;391.55;47.80;;;;;;;;;;5094835;28;20459;-65
2022/12/10 09:37:33;;;;;;;509.40;51.38;;;;;;;;;;5095711;28;20047;-66
2022/12/10 09:40:00;;;;;;;440.38;47.47;;;;;;;;;;5101590;28;20053;-71
2022/12/10 09:42:26;;;;;;;510.70;50.53;;;;;;;;;;5099523;28;20056;-69
2022/12/10 09:44:56;;;;;;;448.65;48.60;;;;;;;;;;5083631;28;20176;-70
2022/12/10 09:47:26;;;;;;;592.17;52.85;;;;;;;;;;5080957;28;20127;-69
2022/12/10 09:49:53;;;;;;;469.92;48.25;;;;;;;;;;5096684;28;20039;-69
2022/12/10 09:52:21;;;;;;;460.58;50.25;;;;;;;;;;5103874;28;20483;-70
2022/12/10 09:54:51;;;;;;;400.80;46.72;;;;;;;;;;5101546;28;20049;-67
2022/12/10 09:57:27;;;;;;;554.05;49.80;;;;;;;;;;5081580;28;20040;-70
2022/12/10 09:59:55;;;;;;;460.20;49.28;;;;;;;;;;5097994;28;20474;-69
2022/12/10 10:02:22;;;;;;;482.40;46.80;;;;;;;;;;5099204;28;20035;-68
2022/12/10 10:04:50;;;;;;;429.10;45.30;;;;;;;;;;5103373;28;20138;-67
2022/12/10 10:07:48;;;;;;;405.92;45.72;;;;;;;;;;5097277;27;20100;-68
2022/12/10 10:10:23;;;;;;;370.83;41.05;;;;;;;;;;5075506;28;20057;-67
2022/12/10 10:12:51;;;;;;;411.52;43.10;;;;;;;;;;5078756;28;20829;-68
2022/12/10 10:15:20;;;;;;;479.67;46.13;;;;;;;;;;5097261;28;20131;-67
2022/12/10 10:17:49;;;;;;;439.17;43.03;;;;;;;;;;5094342;28;20426;-67
2022/12/10 10:20:16;;;;;;;433.20;43.20;;;;;;;;;;5091978;28;20433;-67
2022/12/10 10:22:42;;;;;;;346.42;41.10;;;;;;;;;;5096942;28;20043;-67
2022/12/10 10:25:14;;;;;;;452.33;45.55;;;;;;;;;;5095677;28;20134;-67
2022/12/10 10:27:41;;;;;;;406.17;41.80;;;;;;;;;;5100184;28;20142;-67
2022/12/10 10:30:07;;;;;;;526.40;47.35;;;;;;;;;;5094985;28;20035;-67
2022/12/10 10:32:37;;;;;;;466.30;44.83;;;;;;;;;;5095482;28;20562;-68
2022/12/10 10:35:03;;;;;;;422.73;45.05;;;;;;;;;;5079499;28;20055;-68
2022/12/10 10:37:30;;;;;;;402.95;41.80;;;;;;;;;;5098479;28;20082;-68
2022/12/10 10:39:57;;;;;;;414.58;42.83;;;;;;;;;;5081342;28;20126;-67
2022/12/10 10:42:33;;;;;;;390.20;41.08;;;;;;;;;;5078805;28;20503;-68
2022/12/10 10:44:59;;;;;;;416.40;42.53;;;;;;;;;;5090637;28;20087;-68
2022/12/10 10:47:27;;;;;;;469.23;48.13;;;;;;;;;;5095915;28;20038;-68
2022/12/10 10:49:54;;;;;;;487.55;47.33;;;;;;;;;;5083195;28;20177;-68
2022/12/10 10:52:20;;;;;;;519.47;47.67;;;;;;;;;;5100109;28;20063;-68
2022/12/10 10:54:47;;;;;;;518.75;48.63;;;;;;;;;;5083414;28;20052;-68
2022/12/10 10:57:14;;;;;;;473.55;45.13;;;;;;;;;;5101418;28;20119;-67
2022/12/10 10:59:41;;;;;;;356.70;44.65;;;;;;;;;;5100796;28;20497;-67
2022/12/10 11:02:13;;;;;;;383.35;43.42;;;;;;;;;;5098505;28;20055;-67
2022/12/10 11:04:45;;;;;;;399.70;43.75;;;;;;;;;;5096481;28;21279;-68
2022/12/10 11:07:17;;;;;;;441.98;43.88;;;;;;;;;;5094774;28;20043;-67
2022/12/10 11:09:44;;;;;;;449.42;45.78;;;;;;;;;;5078670;28;20490;-68
2022/12/10 11:12:30;;;;;;;435.00;45.25;;;;;;;;;;5096429;28;20051;-67
2022/12/10 11:14:56;;;;;;;483.75;46.53;;;;;;;;;;5097669;28;20199;-68
2022/12/10 11:17:24;;;;;;;463.92;48.47;;;;;;;;;;5100432;28;20084;-67
2022/12/10 11:19:51;;;;;;;533.00;52.30;;;;;;;;;;5100599;28;20115;-68
2022/12/10 11:22:20;;;;;;;538.80;48.58;;;;;;;;;;5084299;28;20466;-67
2022/12/10 11:24:47;;;;;;;512.00;50.60;;;;;;;;;;5087791;28;20081;-68
2022/12/10 11:27:16;;;;;;;505.05;49.53;;;;;;;;;;5085633;28;20419;-67
2022/12/10 11:29:55;;;;;;;456.88;47.28;;;;;;;;;;5091813;27;20040;-67
2022/12/10 11:32:31;;;;;;;494.80;49.80;;;;;;;;;;5102337;28;20069;-67
2022/12/10 11:35:03;;;;;;;434.80;43.63;;;;;;;;;;5085620;28;20130;-67
2022/12/10 11:37:33;;;;;;;471.25;47.58;;;;;;;;;;5106871;28;20057;-68
2022/12/10 11:40:15;;;;;;;525.50;50.70;;;;;;;;;;5104518;28;20052;-69
2022/12/10 11:42:53;;;;;;;443.20;48.45;;;;;;;;;;5094957;28;20079;-69
2022/12/10 11:45:23;;;;;;;476.50;50.58;;;;;;;;;;5104314;28;20044;-69
2022/12/10 11:47:51;;;;;;;489.65;51.17;;;;;;;;;;5085820;28;20394;-69
2022/12/10 11:50:17;;;;;;;524.83;52.78;;;;;;;;;;5104813;28;20453;-68
2022/12/10 11:52:44;;;;;;;495.05;54.15;;;;;;;;;;5104638;28;20360;-69
2022/12/10 11:55:21;;;;;;;456.85;52.88;;;;;;;;;;5081704;28;20116;-68
2022/12/10 11:57:52;;;;;;;471.30;53.15;;;;;;;;;;5102285;28;20028;-67
2022/12/10 12:00:20;;;;;;;406.38;49.80;;;;;;;;;;5104157;28;20617;-69
2022/12/10 12:02:52;;;;;;;400.98;47.67;;;;;;;;;;5099860;28;20137;-69
2022/12/10 12:05:24;;;;;;;339.60;47.72;;;;;;;;;;5101409;28;20043;-69
2022/12/10 12:07:59;;;;;;;448.70;53.10;;;;;;;;;;5102519;28;20075;-69
2022/12/10 12:10:31;;;;;;;380.15;47.33;;;;;;;;;;5101734;28;20100;-69
2022/12/10 12:12:59;;;;;;;445.27;53.25;;;;;;;;;;5102777;28;20042;-69
2022/12/10 12:15:29;;;;;;;355.70;50.05;;;;;;;;;;5100190;28;20110;-69
2022/12/10 12:17:58;;;;;;;324.17;48.20;;;;;;;;;;5081904;28;20071;-69
2022/12/10 12:20:29;;;;;;;320.75;50.83;;;;;;;;;;5105390;28;20113;-69
2022/12/10 12:22:58;;;;;;;480.48;59.22;;;;;;;;;;5083219;28;20044;-69
2022/12/10 12:25:36;;;;;;;457.02;52.58;;;;;;;;;;5101624;28;21243;-68
2022/12/10 12:28:13;;;;;;;312.05;50.38;;;;;;;;;;5103040;28;20067;-69
2022/12/10 12:30:41;;;;;;;341.27;51.00;;;;;;;;;;5081324;28;20040;-68
2022/12/10 12:33:15;;;;;;;302.17;47.83;;;;;;;;;;5101738;28;20035;-69
2022/12/10 12:35:43;;;;;;;296.73;46.83;;;;;;;;;;5101017;28;20062;-67
2022/12/10 12:38:22;;;;;;;374.17;50.53;;;;;;;;;;5101655;28;20043;-68
2022/12/10 12:40:51;;;;;;;281.00;48.05;;;;;;;;;;5102346;28;20183;-67
2022/12/10 12:43:19;;;;;;;300.55;48.05;;;;;;;;;;5103014;28;20175;-67
2022/12/10 12:45:47;;;;;;;338.50;51.50;;;;;;;;;;5092789;28;20039;-68
2022/12/10 12:48:13;;;;;;;358.13;50.63;;;;;;;;;;5083729;28;20138;-67
2022/12/10 12:50:46;;;;;;;362.65;53.75;;;;;;;;;;5102158;28;20047;-67
2022/12/10 12:53:14;;;;;;;406.77;52.03;;;;;;;;;;5099622;28;20484;-67
2022/12/10 12:55:46;;;;;;;420.55;51.00;;;;;;;;;;5097525;28;20475;-67
2022/12/10 12:58:16;;;;;;;312.35;46.13;;;;;;;;;;5099094;28;20048;-67
2022/12/10 13:00:44;;;;;;;338.35;50.50;;;;;;;;;;5097371;28;20116;-67
2022/12/10 13:03:20;;;;;;;335.25;54.17;;;;;;;;;;5098755;28;20422;-67
2022/12/10 13:05:47;;;;;;;436.08;52.88;;;;;;;;;;5098048;28;20384;-67
2022/12/10 13:08:22;;;;;;;377.75;51.28;;;;;;;;;;5100744;28;20040;-67
2022/12/10 13:10:49;;;;;;;340.33;50.78;;;;;;;;;;5097782;28;20051;-67
2022/12/10 13:13:24;;;;;;;409.27;51.03;;;;;;;;;;5082912;28;20040;-67
2022/12/10 13:15:51;;;;;;;289.38;51.88;;;;;;;;;;5104885;28;20249;-68
2022/12/10 13:18:18;;;;;;;307.73;49.03;;;;;;;;;;5103675;28;20119;-68
2022/12/10 13:20:47;;;;;;;299.25;45.70;;;;;;;;;;5084570;28;20035;-68
2022/12/10 13:23:25;;;;;;;182.00;40.78;;;;;;;;;;5103234;28;20035;-67
2022/12/10 13:25:54;;;;;;;172.00;38.50;;;;;;;;;;5081047;28;20112;-67
2022/12/10 13:28:28;;;;;;;165.98;36.63;;;;;;;;;;5101375;28;20051;-67
2022/12/10 13:31:10;;;;;;;163.48;37.88;;;;;;;;;;5102412;28;20122;-68
2022/12/10 13:33:52;;;;;;;155.40;37.40;;;;;;;;;;5100806;28;20039;-68
2022/12/10 13:36:24;;;;;;;158.48;37.25;;;;;;;;;;5101046;28;20131;-67
2022/12/10 13:38:58;;;;;;;179.52;40.05;;;;;;;;;;5100452;28;20577;-68
2022/12/10 13:44:25;;;;;;;204.00;40.88;;;;;;;;;;5080314;28;20047;-70
2022/12/10 13:47:01;;;;;;;185.60;39.92;;;;;;;;;;5066065;28;20356;-67
2022/12/10 13:49:29;;;;;;;167.23;38.53;;;;;;;;;;5099620;28;20483;-67
2022/12/10 13:51:55;;;;;;;194.20;40.03;;;;;;;;;;5084295;28;20100;-67
2022/12/10 13:54:36;;;;;;;192.50;41.08;;;;;;;;;;5101126;28;20070;-67
2022/12/10 13:57:09;;;;;;;169.18;38.55;;;;;;;;;;5100301;28;20207;-68
2022/12/10 13:59:35;;;;;;;195.07;41.78;;;;;;;;;;5104475;28;20035;-69
2022/12/10 14:02:18;;;;;;;183.27;41.53;;;;;;;;;;5084185;28;20126;-69
2022/12/10 14:05:05;;;;;;;203.73;43.88;;;;;;;;;;5085704;28;20483;-69
2022/12/10 14:07:32;;;;;;;219.18;44.75;;;;;;;;;;5103307;28;20086;-69
2022/12/10 14:09:59;;;;;;;238.32;44.33;;;;;;;;;;5104516;28;20039;-69
2022/12/10 14:12:26;;;;;;;240.18;45.20;;;;;;;;;;5086879;28;20114;-69
2022/12/10 14:15:02;;;;;;;226.32;47.25;;;;;;;;;;5103816;28;20146;-69
2022/12/10 14:17:37;;;;;;;243.15;46.97;;;;;;;;;;5101633;28;20043;-69
2022/12/10 14:20:05;;;;;;;216.32;44.08;;;;;;;;;;5099693;28;20514;-69
2022/12/10 14:22:33;;;;;;;186.90;42.90;;;;;;;;;;5086472;28;20051;-69